Time;durP1;ratioP1;P1;durP2;ratioP2;P2;SDS_P1;SDS_P2;PMS_P1;PMS_P2;Temp;Humidity;BMP_temperature;BMP_pressure;BME280_temperature;BME280_humidity;BME280_pressure;Samples;Min_cycle;Max_cycle;Signal;HPM_P1;HPM_P2
2021/12/15 00:00:32;;;;;;;64.50;33.20;;;;;;;13.71;59.19;102409.91;6092600;23;98877;-76
2021/12/15 00:02:59;;;;;;;67.43;33.60;;;;;;;13.68;59.46;102400.22;6092014;23;99071;-76
2021/12/15 00:05:28;;;;;;;69.05;34.83;;;;;;;13.46;59.97;102405.09;6092230;23;97129;-76
2021/12/15 00:07:56;;;;;;;71.97;34.30;;;;;;;13.48;60.19;102400.66;6092574;23;96741;-77
2021/12/15 00:10:24;;;;;;;66.32;34.80;;;;;;;13.32;60.40;102399.25;6091151;23;99058;-76
2021/12/15 00:12:51;;;;;;;64.97;34.33;;;;;;;13.36;60.69;102400.03;6091706;23;97784;-76
2021/12/15 00:15:19;;;;;;;71.72;34.80;;;;;;;13.33;60.23;102389.47;6091421;23;96716;-76
2021/12/15 00:17:45;;;;;;;68.57;34.30;;;;;;;13.51;60.09;102397.06;6093726;23;96779;-77
2021/12/15 00:20:15;;;;;;;69.03;33.58;;;;;;;13.54;59.65;102396.97;6092295;23;98980;-76
2021/12/15 00:22:43;;;;;;;71.75;33.85;;;;;;;13.48;60.15;102391.81;6092418;23;96757;-76
2021/12/15 00:25:12;;;;;;;69.28;33.78;;;;;;;13.41;59.76;102395.50;6091860;23;97147;-76
2021/12/15 00:27:39;;;;;;;64.72;32.88;;;;;;;13.53;60.00;102396.09;6092738;23;96657;-76
2021/12/15 00:30:08;;;;;;;65.90;33.13;;;;;;;13.50;59.97;102395.31;6090389;23;99532;-75
2021/12/15 00:32:35;;;;;;;66.30;34.08;;;;;;;13.45;59.76;102386.56;6091919;23;98936;-75
2021/12/15 00:35:01;;;;;;;66.68;34.03;;;;;;;13.32;60.11;102393.06;6091392;23;96625;-76
2021/12/15 00:37:29;;;;;;;60.88;33.38;;;;;;;13.07;62.22;102395.28;6092566;23;97172;-76
2021/12/15 00:39:55;;;;;;;67.45;34.25;;;;;;;13.26;61.00;102393.19;6090005;23;99657;-75
2021/12/15 00:42:21;;;;;;;70.70;35.20;;;;;;;13.22;60.61;102388.81;6091147;23;99225;-76
2021/12/15 00:44:48;;;;;;;66.15;32.88;;;;;;;13.47;59.95;102398.03;6091638;23;96996;-75
2021/12/15 00:47:14;;;;;;;65.70;32.58;;;;;;;13.43;60.61;102391.03;6090740;23;96750;-75
2021/12/15 00:49:42;;;;;;;64.20;31.77;;;;;;;13.54;59.74;102396.97;6090891;23;98037;-76
2021/12/15 00:52:09;;;;;;;62.90;31.52;;;;;;;13.43;59.65;102396.34;6090760;23;98919;-76
2021/12/15 00:54:38;;;;;;;67.47;32.42;;;;;;;13.35;60.40;102396.50;6090785;23;97444;-75
2021/12/15 00:57:05;;;;;;;62.58;33.22;;;;;;;13.51;59.84;102403.25;6091343;23;96853;-76
2021/12/15 00:59:33;;;;;;;68.82;32.45;;;;;;;13.50;59.92;102405.94;6091300;23;99197;-76
2021/12/15 01:02:00;;;;;;;65.88;32.63;;;;;;;13.61;59.58;102414.53;6092508;23;99183;-75
2021/12/15 01:04:29;;;;;;;67.68;33.22;;;;;;;13.51;59.73;102408.56;6090348;23;96577;-75
2021/12/15 01:06:59;;;;;;;66.43;33.10;;;;;;;13.48;59.95;102415.72;6091180;23;97283;-76
2021/12/15 01:09:30;;;;;;;74.50;34.22;;;;;;;13.56;59.65;102416.44;6090437;23;100261;-76
2021/12/15 01:12:13;;;;;;;65.28;31.10;;;;;;;13.68;59.35;102413.50;6091997;23;101407;-76
2021/12/15 01:20:29;;;;;;;64.47;31.77;;;;;;;13.57;60.02;102418.19;6091596;23;97073;-76
2021/12/15 01:22:59;;;;;;;72.18;33.55;;;;;;;13.50;59.91;102424.53;6089347;23;99227;-76
2021/12/15 01:25:28;;;;;;;65.78;33.17;;;;;;;13.54;60.07;102428.84;6089974;23;96681;-76
2021/12/15 01:27:57;;;;;;;72.03;33.45;;;;;;;13.40;60.67;102428.25;6091670;23;97297;-77
2021/12/15 01:30:27;;;;;;;68.82;33.22;;;;;;;13.35;60.64;102432.81;6089905;23;99801;-76
2021/12/15 01:32:55;;;;;;;66.40;32.15;;;;;;;13.46;60.09;102431.66;6091870;23;99186;-75
2021/12/15 01:35:22;;;;;;;67.47;32.92;;;;;;;13.27;60.00;102429.41;6091813;23;96662;-76
2021/12/15 01:37:49;;;;;;;64.88;32.22;;;;;;;13.15;60.92;102427.88;6092957;23;96898;-75
2021/12/15 01:40:26;;;;;;;67.30;32.55;;;;;;;13.30;60.53;102424.06;6097258;23;98431;-76
2021/12/15 01:42:53;;;;;;;69.47;32.80;;;;;;;13.43;60.03;102433.53;6094189;23;99282;-77
2021/12/15 01:48:10;;;;;;;64.82;31.33;;;;;;;13.49;60.02;102422.78;6095390;23;96743;-75
2021/12/15 01:50:37;;;;;;;72.72;32.47;;;;;;;13.54;59.49;102423.53;6095341;23;99373;-76
2021/12/15 01:53:05;;;;;;;62.10;31.17;;;;;;;13.69;59.45;102417.03;6093386;23;99368;-76
2021/12/15 01:55:32;;;;;;;66.80;33.50;;;;;;;13.59;59.17;102421.66;6090940;23;96614;-76
2021/12/15 01:57:59;;;;;;;65.78;31.67;;;;;;;13.62;59.17;102426.03;6098555;23;96811;-76
2021/12/15 02:00:30;;;;;;;59.33;31.02;;;;;;;13.86;58.44;102429.03;6093577;23;97721;-76
2021/12/15 02:02:58;;;;;;;66.45;32.30;;;;;;;13.80;58.76;102426.50;6094561;23;98833;-76
2021/12/15 02:05:25;;;;;;;61.75;29.67;;;;;;;13.75;58.66;102420.44;6092417;23;97023;-76
2021/12/15 02:07:52;;;;;;;61.53;31.33;;;;;;;13.70;58.92;102414.34;6094478;23;96868;-75
2021/12/15 02:10:24;;;;;;;61.20;30.70;;;;;;;13.80;58.43;102413.22;6094764;23;99550;-77
2021/12/15 02:12:51;;;;;;;65.22;31.17;;;;;;;13.81;58.27;102407.00;6096772;23;99471;-76
2021/12/15 02:15:21;;;;;;;61.92;30.13;;;;;;;13.61;58.49;102405.69;6097001;23;96577;-75
2021/12/15 02:17:49;;;;;;;57.05;29.33;;;;;;;13.63;58.96;102407.41;6096888;23;96549;-76
2021/12/15 02:20:18;;;;;;;59.42;29.15;;;;;;;13.76;58.71;102414.22;6099716;23;96854;-76
2021/12/15 02:22:47;;;;;;;59.88;29.58;;;;;;;13.76;58.29;102411.56;6109354;23;98800;-76
2021/12/15 02:25:16;;;;;;;55.17;28.25;;;;;;;13.61;59.05;102413.66;6111295;23;96055;-76
2021/12/15 02:27:43;;;;;;;53.10;26.75;;;;;;;13.56;59.11;102408.47;6112486;23;96813;-76
2021/12/15 02:30:28;;;;;;;59.08;29.98;;;;;;;13.51;58.80;102408.56;6115518;23;99121;-76
2021/12/15 02:33:09;;;;;;;58.13;28.80;;;;;;;13.50;59.43;102406.81;6114563;23;97952;-76
2021/12/15 02:38:29;;;;;;;56.22;28.98;;;;;;;13.50;59.12;102401.50;6094679;23;96553;-75
2021/12/15 02:41:04;;;;;;;56.75;29.23;;;;;;;13.52;59.49;102414.75;6094092;23;99228;-76
2021/12/15 02:43:31;;;;;;;54.28;27.02;;;;;;;13.33;60.10;102408.06;6097784;23;97699;-75
2021/12/15 02:45:58;;;;;;;55.20;27.70;;;;;;;13.45;59.72;102407.81;6093489;23;96678;-75
2021/12/15 02:48:24;;;;;;;51.28;27.00;;;;;;;13.44;59.73;102416.69;6100896;23;96800;-74
2021/12/15 02:50:51;;;;;;;55.42;26.08;;;;;;;13.38;59.61;102417.69;6111971;23;98382;-76
2021/12/15 02:53:18;;;;;;;54.40;26.20;;;;;;;13.50;59.25;102432.50;6099550;23;97850;-76
2021/12/15 02:55:45;;;;;;;55.95;26.17;;;;;;;13.63;58.78;102426.00;6097022;23;96638;-75
2021/12/15 02:58:12;;;;;;;51.67;26.25;;;;;;;13.53;58.81;102432.41;6098864;23;96607;-76
2021/12/15 03:00:49;;;;;;;51.83;25.40;;;;;;;13.61;58.90;102433.13;6096565;23;98982;-76
2021/12/15 03:03:46;;;;;;;;;;;;;;;13.23;58.75;102428.63;6097404;23;97562;-77
2021/12/15 03:06:17;;;;;;;53.20;25.80;;;;;;;13.28;60.32;102424.09;6093950;23;96672;-75
2021/12/15 03:08:54;;;;;;;51.53;25.65;;;;;;;13.45;59.41;102423.75;6094553;23;96617;-76
2021/12/15 03:16:55;;;;;;;49.17;26.13;;;;;;;13.63;58.92;102428.66;6091761;23;97325;-76
2021/12/15 03:19:22;;;;;;;51.13;24.92;;;;;;;13.75;58.83;102423.09;6091053;23;97098;-74
2021/12/15 03:21:49;;;;;;;49.28;25.55;;;;;;;13.76;58.56;102422.19;6090541;23;98555;-76
2021/12/15 03:24:20;;;;;;;49.60;25.10;;;;;;;13.73;58.35;102422.22;6092402;23;99120;-75
2021/12/15 03:26:55;;;;;;;52.42;26.23;;;;;;;13.67;58.69;102419.72;6094119;23;96691;-76
2021/12/15 03:35:05;;;;;;;51.55;26.88;;;;;;;13.67;58.36;102419.72;6091301;23;97696;-75
2021/12/15 03:37:35;;;;;;;50.88;26.45;;;;;;;13.21;60.35;102422.44;6096075;23;96584;-75
2021/12/15 03:40:08;;;;;;;60.40;28.23;;;;;;;13.47;59.78;102416.59;6093363;23;96631;-76
2021/12/15 03:42:40;;;;;;;53.45;26.70;;;;;;;13.37;59.71;102415.06;6092510;23;99086;-76
2021/12/15 03:45:09;;;;;;;51.65;26.13;;;;;;;13.43;59.67;102415.81;6092005;23;99115;-76
2021/12/15 03:47:40;;;;;;;52.28;25.85;;;;;;;13.56;59.25;102412.00;6092906;23;96718;-76
2021/12/15 03:50:09;;;;;;;51.63;26.30;;;;;;;13.71;58.91;102408.13;6092516;23;96745;-76
2021/12/15 03:52:35;;;;;;;51.17;25.80;;;;;;;13.71;58.93;102408.13;6092459;23;99020;-76
2021/12/15 03:55:03;;;;;;;51.65;27.05;;;;;;;13.72;58.82;102407.19;6091727;23;99035;-75
2021/12/15 03:57:29;;;;;;;54.03;27.55;;;;;;;13.79;58.12;102408.81;6092488;23;97243;-76
2021/12/15 03:59:57;;;;;;;49.05;26.38;;;;;;;13.73;58.43;102408.06;6093044;23;97001;-75
2021/12/15 04:02:25;;;;;;;47.80;24.73;;;;;;;13.78;58.07;102411.53;6091195;23;99112;-76
2021/12/15 04:04:52;;;;;;;48.28;25.08;;;;;;;13.83;58.24;102413.16;6091156;23;97824;-76
2021/12/15 04:07:22;;;;;;;48.17;25.58;;;;;;;13.84;58.13;102406.94;6092439;23;96552;-75
2021/12/15 04:09:50;;;;;;;50.45;25.65;;;;;;;13.72;58.34;102412.50;6092359;23;96772;-76
2021/12/15 04:12:17;;;;;;;51.80;26.10;;;;;;;13.76;58.15;102414.22;6092275;23;99020;-76
2021/12/15 04:14:45;;;;;;;50.67;26.23;;;;;;;13.85;57.84;102407.78;6095064;23;99529;-75
2021/12/15 04:17:29;;;;;;;46.22;23.80;;;;;;;13.75;58.34;102409.81;6099136;23;96983;-75
2021/12/15 04:19:58;;;;;;;50.97;25.63;;;;;;;13.54;59.25;102410.25;6098724;23;96718;-76
2021/12/15 04:22:25;;;;;;;50.53;25.80;;;;;;;13.40;59.36;102413.22;6101652;23;98398;-75
2021/12/15 04:24:52;;;;;;;47.42;24.83;;;;;;;13.60;58.67;102412.78;6095868;23;98172;-76
2021/12/15 04:27:20;;;;;;;45.28;24.17;;;;;;;13.71;58.75;102416.09;6096578;23;96523;-75
2021/12/15 04:29:47;;;;;;;45.25;24.85;;;;;;;13.69;58.71;102417.03;6107691;23;97180;-75
2021/12/15 04:32:20;;;;;;;45.33;23.48;;;;;;;13.72;58.50;102412.50;6091786;23;99193;-75
2021/12/15 04:34:47;;;;;;;41.65;23.13;;;;;;;13.44;59.18;102406.94;6090934;23;99471;-76
2021/12/15 04:37:13;;;;;;;44.78;23.52;;;;;;;13.42;59.36;102413.19;6092607;23;96630;-75
2021/12/15 04:39:40;;;;;;;42.03;22.85;;;;;;;13.40;59.64;102415.84;6091745;23;97166;-76
2021/12/15 04:42:07;;;;;;;44.88;24.05;;;;;;;13.48;59.45;102413.94;6091843;23;99529;-76
2021/12/15 04:44:34;;;;;;;42.85;23.40;;;;;;;13.48;59.04;102428.97;6091656;23;101589;-76
2021/12/15 04:47:08;;;;;;;41.63;22.27;;;;;;;13.36;59.07;102423.94;6091922;23;96640;-76
2021/12/15 04:49:38;;;;;;;42.63;22.08;;;;;;;13.35;59.23;102430.16;6092263;23;96767;-76
2021/12/15 04:52:05;;;;;;;45.78;23.58;;;;;;;13.59;58.90;102418.16;6090983;23;98238;-75
2021/12/15 04:54:32;;;;;;;46.58;23.35;;;;;;;13.54;58.86;102423.53;6092468;23;102047;-75
2021/12/15 04:56:59;;;;;;;45.95;22.92;;;;;;;13.67;59.12;102435.66;6093690;23;96578;-77
2021/12/15 04:59:25;;;;;;;44.70;22.25;;;;;;;13.73;58.25;102434.63;6094109;23;96796;-75
2021/12/15 05:01:52;;;;;;;42.05;23.20;;;;;;;13.70;58.46;102445.34;6093210;23;99055;-76
2021/12/15 05:04:19;;;;;;;41.05;21.80;;;;;;;13.62;58.68;102441.97;6091404;23;99296;-76
2021/12/15 05:06:47;;;;;;;40.80;21.80;;;;;;;13.64;58.96;102445.47;6093235;23;96669;-76
2021/12/15 05:09:14;;;;;;;42.10;22.27;;;;;;;13.37;59.08;102452.25;6092076;23;97256;-76
2021/12/15 05:11:42;;;;;;;40.63;21.77;;;;;;;13.42;59.52;102451.25;6091938;23;98904;-76
2021/12/15 05:14:09;;;;;;;39.25;21.52;;;;;;;13.56;59.06;102456.25;6092168;23;99165;-76
2021/12/15 05:16:35;;;;;;;38.72;21.98;;;;;;;13.22;60.10;102452.53;6091389;23;96605;-76
2021/12/15 05:19:02;;;;;;;43.03;22.63;;;;;;;13.24;59.67;102453.38;6091255;23;96857;-76
2021/12/15 05:21:30;;;;;;;42.33;22.58;;;;;;;13.50;59.57;102454.63;6091814;23;98034;-77
2021/12/15 05:24:02;;;;;;;41.92;22.65;;;;;;;13.59;59.08;102450.03;6090865;23;99169;-76
2021/12/15 05:26:30;;;;;;;40.38;22.10;;;;;;;13.50;59.36;102453.75;6093202;23;96681;-76
2021/12/15 05:28:56;;;;;;;39.83;21.83;;;;;;;13.36;59.47;102453.13;6098895;23;96845;-76
2021/12/15 05:31:23;;;;;;;41.05;22.42;;;;;;;13.45;59.55;102460.94;6106032;23;97645;-75
2021/12/15 05:33:49;;;;;;;43.83;22.58;;;;;;;13.61;58.92;102459.69;6107789;23;99069;-76
2021/12/15 05:36:16;;;;;;;44.30;22.50;;;;;;;13.56;58.95;102458.91;6111089;23;96499;-76
2021/12/15 05:38:42;;;;;;;46.88;22.05;;;;;;;13.80;58.54;102458.38;6106931;23;96519;-75
2021/12/15 05:41:11;;;;;;;40.00;22.00;;;;;;;13.78;58.61;102460.22;6101737;23;98894;-75
2021/12/15 05:43:37;;;;;;;42.63;22.58;;;;;;;13.77;58.47;102452.28;6106006;23;97547;-75
2021/12/15 05:46:04;;;;;;;38.92;21.30;;;;;;;13.95;58.07;102460.72;6104111;23;96643;-75
2021/12/15 05:48:31;;;;;;;41.15;22.45;;;;;;;13.71;58.00;102463.03;6099964;23;96711;-76
2021/12/15 05:50:57;;;;;;;40.85;23.23;;;;;;;13.50;58.69;102464.38;6092959;23;99110;-75
2021/12/15 05:53:24;;;;;;;43.30;21.95;;;;;;;13.80;58.45;102463.69;6092901;23;97665;-76
2021/12/15 05:55:52;;;;;;;44.10;22.52;;;;;;;13.77;58.47;102461.13;6093409;23;96624;-76
2021/12/15 05:58:20;;;;;;;49.28;25.40;;;;;;;13.67;58.65;102466.66;6094193;23;97312;-76
2021/12/15 06:00:48;;;;;;;44.15;22.75;;;;;;;13.61;59.04;102464.13;6110805;23;99484;-76
2021/12/15 06:03:15;;;;;;;41.13;22.83;;;;;;;13.82;58.57;102472.53;6103104;23;97600;-75
2021/12/15 06:05:42;;;;;;;45.00;23.33;;;;;;;13.66;58.87;102471.09;6107545;23;96560;-76
2021/12/15 06:08:09;;;;;;;45.00;22.92;;;;;;;13.88;58.34;102471.50;6110841;23;96561;-76
2021/12/15 06:10:39;;;;;;;44.78;24.02;;;;;;;13.93;58.26;102470.50;6108349;23;98317;-75
2021/12/15 06:13:08;;;;;;;44.13;23.00;;;;;;;13.80;58.34;102476.09;6107826;23;97710;-76
2021/12/15 06:15:37;;;;;;;47.38;22.85;;;;;;;13.69;59.05;102478.13;6108600;23;96917;-73
2021/12/15 06:18:06;;;;;;;42.55;23.85;;;;;;;13.83;58.79;102476.94;6104438;23;96825;-75
2021/12/15 06:20:34;;;;;;;42.55;22.90;;;;;;;13.96;58.17;102475.75;6092961;23;98120;-76
2021/12/15 06:23:05;;;;;;;37.92;21.35;;;;;;;13.92;58.16;102484.69;6092322;23;99269;-76
2021/12/15 06:25:32;;;;;;;42.65;21.90;;;;;;;14.06;57.89;102475.53;6091938;23;97161;-76
2021/12/15 06:27:58;;;;;;;42.97;23.20;;;;;;;14.03;57.75;102481.81;6091309;23;97350;-76
2021/12/15 06:30:24;;;;;;;37.03;20.85;;;;;;;14.08;57.30;102490.56;6091674;23;99149;-77
2021/12/15 06:32:52;;;;;;;38.45;20.90;;;;;;;14.09;57.49;102478.13;6097153;23;97959;-75
2021/12/15 06:35:19;;;;;;;38.70;21.38;;;;;;;13.96;57.81;102483.72;6093195;23;96629;-76
2021/12/15 06:37:46;;;;;;;39.03;21.58;;;;;;;14.06;57.72;102473.75;6093802;23;96858;-75
2021/12/15 06:40:13;;;;;;;41.30;21.27;;;;;;;13.98;57.75;102482.84;6090999;23;98984;-75
2021/12/15 06:42:42;;;;;;;39.58;21.73;;;;;;;14.09;57.62;102480.81;6088277;23;97752;-75
2021/12/15 06:45:19;;;;;;;39.88;20.95;;;;;;;14.07;57.12;102487.91;6094749;23;97045;-75
2021/12/15 06:58:42;;;;;;;37.90;21.10;;;;;;;13.85;58.16;102488.38;6095117;23;96765;-76
2021/12/15 07:01:10;;;;;;;39.47;20.63;;;;;;;13.90;58.47;102483.88;6095473;23;98930;-74
2021/12/15 07:03:37;;;;;;;36.80;21.05;;;;;;;13.62;58.99;102484.47;6092696;23;98127;-76
2021/12/15 07:06:04;;;;;;;38.35;19.90;;;;;;;13.73;58.84;102486.00;6093452;23;96990;-75
2021/12/15 07:08:31;;;;;;;36.17;19.80;;;;;;;13.74;58.64;102500.16;6092077;23;96778;-76
2021/12/15 07:11:00;;;;;;;39.15;20.33;;;;;;;13.85;58.24;102493.69;6094302;23;100240;-76
2021/12/15 07:13:28;;;;;;;39.40;20.70;;;;;;;13.72;58.72;102497.53;6094517;23;98006;-75
2021/12/15 07:16:01;;;;;;;35.22;18.65;;;;;;;13.84;58.63;102501.72;6094410;23;96664;-75
2021/12/15 07:18:38;;;;;;;33.03;19.00;;;;;;;13.80;58.60;102500.91;6093196;23;96598;-77
2021/12/15 07:21:11;;;;;;;34.40;18.20;;;;;;;13.71;58.56;102509.09;6094234;23;100109;-76
2021/12/15 07:23:38;;;;;;;31.30;18.52;;;;;;;13.89;58.82;102506.03;6094591;23;98811;-76
2021/12/15 07:26:05;;;;;;;34.70;18.92;;;;;;;13.90;58.44;102513.09;6093474;23;96657;-75
2021/12/15 07:28:32;;;;;;;34.97;19.27;;;;;;;13.87;58.29;102513.16;6095247;23;96724;-75
2021/12/15 07:30:59;;;;;;;30.52;19.10;;;;;;;13.91;58.17;102517.47;6095733;23;98333;-76
2021/12/15 07:33:25;;;;;;;33.90;19.10;;;;;;;13.92;58.05;102516.56;6096274;23;100613;-76
2021/12/15 07:35:52;;;;;;;38.65;24.30;;;;;;;13.85;59.06;102517.63;6095431;23;96629;-75
2021/12/15 07:38:20;;;;;;;34.22;20.17;;;;;;;13.86;58.78;102514.06;6093678;23;97051;-76
2021/12/15 07:40:47;;;;;;;30.60;18.48;;;;;;;13.97;57.86;102521.81;6089904;23;99131;-75
2021/12/15 07:43:23;;;;;;;34.72;20.05;;;;;;;13.91;57.89;102522.78;6087478;23;99682;-75
2021/12/15 07:45:52;;;;;;;30.42;18.10;;;;;;;13.93;58.44;102513.03;6089548;23;96746;-75
2021/12/15 07:48:21;;;;;;;31.35;18.33;;;;;;;13.93;58.16;102518.34;6090447;23;97007;-73
2021/12/15 07:50:51;;;;;;;32.38;17.45;;;;;;;14.03;58.25;102516.38;6089913;23;99366;-76
2021/12/15 07:53:19;;;;;;;32.92;19.50;;;;;;;14.06;57.69;102518.94;6090459;23;98407;-75
2021/12/15 07:55:46;;;;;;;31.42;17.75;;;;;;;14.05;58.04;102526.94;6090777;23;97476;-73
2021/12/15 07:58:13;;;;;;;32.00;17.90;;;;;;;13.98;57.71;102520.03;6090030;23;97184;-75
2021/12/15 08:00:43;;;;;;;31.88;19.05;;;;;;;13.79;58.60;102523.06;6089888;23;97608;-74
2021/12/15 08:03:09;;;;;;;29.88;18.13;;;;;;;13.89;59.01;102521.09;6090609;23;98872;-76
2021/12/15 08:05:37;;;;;;;35.25;21.15;;;;;;;13.83;58.79;102521.22;6090262;23;96968;-75
2021/12/15 08:08:04;;;;;;;33.45;18.92;;;;;;;13.95;58.68;102526.28;6090352;23;96806;-76
2021/12/15 08:10:32;;;;;;;30.75;17.25;;;;;;;13.90;58.54;102531.69;6089486;23;99063;-75
2021/12/15 08:12:58;;;;;;;29.20;16.70;;;;;;;13.93;58.40;102534.28;6089916;23;97747;-74
2021/12/15 08:15:25;;;;;;;33.65;17.95;;;;;;;13.67;58.83;102528.63;6088926;23;97139;-74
2021/12/15 08:17:52;;;;;;;25.17;16.05;;;;;;;13.90;58.67;102534.38;6090407;23;97210;-74
2021/12/15 08:20:21;;;;;;;27.65;16.63;;;;;;;13.96;58.29;102536.88;6090693;23;98374;-76
2021/12/15 08:22:47;;;;;;;28.13;17.15;;;;;;;14.08;57.96;102541.06;6089357;23;99331;-74
2021/12/15 08:25:16;;;;;;;32.83;19.75;;;;;;;14.02;58.32;102542.97;6089600;23;97043;-76
2021/12/15 08:27:45;;;;;;;26.45;15.45;;;;;;;14.09;58.17;102539.28;6090642;23;96828;-75
2021/12/15 08:30:19;;;;;;;28.20;16.52;;;;;;;13.92;58.20;102539.63;6089718;23;98189;-74
2021/12/15 08:32:46;;;;;;;26.90;17.00;;;;;;;13.91;58.02;102541.41;6092681;23;98798;-76
2021/12/15 08:35:12;;;;;;;25.60;15.90;;;;;;;13.98;58.59;102550.13;6094379;23;96605;-74
2021/12/15 08:37:39;;;;;;;28.08;16.38;;;;;;;13.78;58.98;102541.72;6095007;23;96916;-75
2021/12/15 08:40:07;;;;;;;25.55;15.70;;;;;;;13.82;58.87;102546.94;6092473;23;99172;-74
2021/12/15 08:42:33;;;;;;;27.70;16.25;;;;;;;13.96;58.60;102551.97;6094218;23;101391;-75
2021/12/15 08:45:08;;;;;;;26.00;15.57;;;;;;;13.81;58.16;102552.25;6093661;23;97197;-72
2021/12/15 08:47:35;;;;;;;27.38;16.17;;;;;;;13.88;58.65;102552.13;6092035;23;96663;-74
2021/12/15 08:50:02;;;;;;;30.40;17.58;;;;;;;13.90;58.65;102550.31;6089699;23;98143;-74
2021/12/15 08:52:28;;;;;;;31.35;17.90;;;;;;;14.08;58.46;102548.16;6089997;23;98763;-74
2021/12/15 08:54:55;;;;;;;32.40;16.67;;;;;;;14.05;57.92;102553.53;6088920;23;96763;-75
2021/12/15 08:57:21;;;;;;;29.83;16.80;;;;;;;14.03;57.90;102552.69;6089737;23;97035;-75
2021/12/15 08:59:47;;;;;;;29.50;17.33;;;;;;;13.90;58.46;102560.06;6089419;23;98965;-75
2021/12/15 09:02:15;;;;;;;29.25;17.38;;;;;;;13.69;59.64;102561.34;6085248;23;98998;-75
2021/12/15 09:04:42;;;;;;;29.60;16.33;;;;;;;14.07;58.72;102562.34;6089354;23;96704;-75
2021/12/15 09:07:09;;;;;;;28.77;17.60;;;;;;;13.88;59.05;102557.44;6091454;23;96832;-75
2021/12/15 09:09:36;;;;;;;29.17;16.48;;;;;;;14.14;58.23;102554.22;6091323;23;99507;-75
2021/12/15 09:12:03;;;;;;;29.95;17.77;;;;;;;14.47;57.17;102555.28;6092408;23;98740;-74
2021/12/15 09:14:30;;;;;;;27.75;17.35;;;;;;;14.58;56.71;102555.91;6092060;23;97082;-75
2021/12/15 09:16:59;;;;;;;27.27;16.92;;;;;;;14.47;57.12;102562.38;6094251;23;96665;-76
2021/12/15 09:19:27;;;;;;;28.80;16.58;;;;;;;14.39;57.04;102553.69;6093111;23;98917;-75
2021/12/15 09:21:55;;;;;;;25.30;16.25;;;;;;;14.26;57.45;102558.38;6096262;23;99086;-75
2021/12/15 09:24:23;;;;;;;29.83;16.77;;;;;;;14.28;57.38;102561.88;6094045;23;96646;-75
2021/12/15 09:26:49;;;;;;;28.60;16.63;;;;;;;14.48;57.11;102561.47;6094999;23;96741;-75
2021/12/15 09:29:16;;;;;;;25.55;16.40;;;;;;;14.49;56.97;102565.88;6092202;23;99201;-75
2021/12/15 09:31:43;;;;;;;25.85;17.10;;;;;;;14.19;57.64;102562.09;6094683;23;99285;-74
2021/12/15 09:34:11;;;;;;;29.02;17.40;;;;;;;13.79;59.34;102567.34;6094104;23;97282;-75
2021/12/15 09:36:39;;;;;;;27.15;16.80;;;;;;;14.14;58.68;102561.31;6095197;23;97040;-75
2021/12/15 09:39:10;;;;;;;30.70;16.83;;;;;;;14.46;57.59;102561.50;6095692;23;97913;-74
2021/12/15 09:41:37;;;;;;;29.92;18.00;;;;;;;14.31;57.46;102553.81;6097223;23;97631;-75
2021/12/15 09:44:09;;;;;;;32.97;19.20;;;;;;;14.57;57.06;102553.28;6099249;23;96536;-75
2021/12/15 09:46:51;;;;;;;27.92;17.42;;;;;;;14.57;57.13;102559.47;6111708;23;96536;-74
2021/12/15 10:01:51;;;;;;;30.55;17.88;;;;;;;14.55;57.28;102552.44;6116408;23;95816;-75
2021/12/15 10:03:15;;;;;;;28.42;17.92;;;;;;;14.66;56.67;102543.28;6104463;23;97144;-75
2021/12/15 10:05:51;;;;;;;31.02;19.10;;;;;;;14.87;56.33;102543.69;6098103;23;97157;-76
2021/12/15 10:11:41;;;;;;;28.90;18.42;;;;;;;14.63;56.18;102540.72;6092215;23;96993;-76
2021/12/15 10:19:37;;;;;;;29.40;17.98;;;;;;;14.81;56.50;102546.50;6091846;23;96969;-74
2021/12/15 10:22:12;;;;;;;28.88;17.50;;;;;;;14.68;56.62;102545.91;6094171;23;97723;-74
2021/12/15 10:24:46;;;;;;;29.20;17.13;;;;;;;14.86;56.52;102539.28;6091766;23;97692;-76
2021/12/15 10:27:14;;;;;;;28.30;17.23;;;;;;;14.70;56.82;102539.63;6092805;23;96755;-74
2021/12/15 10:30:06;;;;;;;31.02;18.20;;;;;;;14.25;58.32;102538.00;6093055;23;96876;-75
2021/12/15 10:32:36;;;;;;;27.13;17.52;;;;;;;14.07;58.58;102536.66;6093054;23;98795;-74
2021/12/15 10:35:07;;;;;;;29.45;18.10;;;;;;;14.34;58.30;102532.50;6093319;23;97943;-76
2021/12/15 10:37:34;;;;;;;26.92;16.45;;;;;;;14.39;57.69;102537.72;6093872;23;96769;-75
2021/12/15 10:40:17;;;;;;;27.45;17.42;;;;;;;14.46;57.71;102534.03;6093711;23;96748;-75
2021/12/15 10:42:45;;;;;;;26.55;17.27;;;;;;;14.46;57.79;102539.34;6094527;23;97822;-76
2021/12/15 10:45:13;;;;;;;29.88;17.20;;;;;;;14.26;58.01;102535.31;6091797;23;99146;-75
2021/12/15 10:47:42;;;;;;;25.60;16.55;;;;;;;14.53;57.62;102532.97;6093509;23;97391;-75
2021/12/15 10:50:13;;;;;;;29.63;17.30;;;;;;;14.35;58.33;102536.91;6098440;23;97260;-74
2021/12/15 10:52:54;;;;;;;22.65;15.40;;;;;;;14.26;58.09;102531.78;6092244;23;98031;-75
2021/12/15 10:55:29;;;;;;;25.98;15.77;;;;;;;14.03;59.20;102539.41;6092490;23;98970;-74
2021/12/15 10:57:56;;;;;;;27.00;17.00;;;;;;;14.07;58.93;102535.78;6092573;23;97181;-75
2021/12/15 11:00:23;;;;;;;27.50;16.65;;;;;;;14.19;58.77;102535.50;6092154;23;96854;-74
2021/12/15 11:02:49;;;;;;;28.35;17.35;;;;;;;13.95;59.55;102542.22;6091367;23;99094;-74
2021/12/15 11:05:19;;;;;;;27.75;16.30;;;;;;;14.34;58.22;102535.16;6092103;23;97752;-74
2021/12/15 11:07:47;;;;;;;24.65;15.02;;;;;;;14.29;58.41;102545.03;6091229;23;97095;-75
2021/12/15 11:10:17;;;;;;;24.38;15.60;;;;;;;14.07;58.84;102544.63;6092951;23;96784;-75
2021/12/15 11:12:47;;;;;;;24.25;15.23;;;;;;;14.41;58.26;102542.13;6093172;23;98938;-75
2021/12/15 11:15:16;;;;;;;26.95;15.43;;;;;;;14.61;57.41;102541.66;6092685;23;98126;-76
2021/12/15 11:17:45;;;;;;;29.40;16.20;;;;;;;14.75;57.09;102535.09;6095076;23;96752;-75
2021/12/15 11:20:18;;;;;;;20.88;14.73;;;;;;;14.81;56.69;102539.38;6093568;23;96759;-74
2021/12/15 11:22:54;;;;;;;23.10;14.98;;;;;;;14.89;56.48;102544.53;6092961;23;97991;-74
2021/12/15 11:25:34;;;;;;;22.63;14.98;;;;;;;14.96;56.22;102538.13;6092103;23;99396;-73
2021/12/15 11:28:06;;;;;;;23.45;14.68;;;;;;;15.10;55.77;102527.97;6092878;23;96965;-74
2021/12/15 11:30:39;;;;;;;20.40;13.32;;;;;;;14.82;57.00;102533.16;6092302;23;97257;-74
2021/12/15 11:33:09;;;;;;;20.80;13.95;;;;;;;14.81;56.92;102530.53;6091316;23;99075;-74
2021/12/15 11:35:39;;;;;;;24.95;13.45;;;;;;;14.93;56.59;102527.56;6091737;23;98822;-75
2021/12/15 11:38:10;;;;;;;22.05;13.80;;;;;;;14.91;56.59;102522.25;6101632;23;97106;-74
2021/12/15 11:40:42;;;;;;;20.42;13.15;;;;;;;15.06;56.49;102526.31;6116008;23;96639;-73
2021/12/15 11:43:26;;;;;;;21.67;13.52;;;;;;;15.18;55.75;102526.00;6116826;23;97844;-71
2021/12/15 11:45:53;;;;;;;19.80;13.15;;;;;;;15.17;55.77;102529.56;6115337;23;100364;-74
2021/12/15 11:48:23;;;;;;;19.70;13.73;;;;;;;15.20;55.43;102523.31;6118229;23;96466;-74
2021/12/15 11:50:53;;;;;;;20.05;13.13;;;;;;;15.23;55.40;102518.75;6113828;23;95983;-74
2021/12/15 11:53:31;;;;;;;17.65;12.43;;;;;;;14.54;57.51;102518.78;6098710;23;99448;-74
2021/12/15 11:56:17;;;;;;;23.98;13.43;;;;;;;15.26;55.83;102517.81;6102313;23;98944;-74
2021/12/15 11:58:47;;;;;;;19.85;12.90;;;;;;;15.01;55.46;102518.47;6097513;23;96492;-74
2021/12/15 12:01:38;;;;;;;18.55;12.50;;;;;;;15.24;55.77;102508.97;6096201;23;96768;-74
2021/12/15 12:04:17;;;;;;;16.70;11.35;;;;;;;14.88;56.48;102509.06;6095106;23;97882;-75
2021/12/15 12:06:47;;;;;;;20.75;11.32;;;;;;;15.11;56.15;102496.00;6094884;23;101234;-75
2021/12/15 12:09:15;;;;;;;18.83;11.65;;;;;;;15.44;55.19;102498.66;6094371;23;96521;-75
2021/12/15 12:11:44;;;;;;;26.73;11.82;;;;;;;15.22;55.38;102495.72;6092773;23;96899;-74